createdAt,value
2024-02-18T00:01:00.465Z,8.00
2024-02-18T00:03:27.791Z,8.00
2024-02-18T00:05:59.198Z,8.10
2024-02-18T00:08:26.014Z,8.10
2024-02-18T00:10:53.104Z,8.00
2024-02-18T00:13:20.677Z,8.00
2024-02-18T00:15:47.394Z,8.00
2024-02-18T00:18:14.553Z,8.10
2024-02-18T00:20:41.350Z,8.10
2024-02-18T00:23:07.934Z,8.10
2024-02-18T00:25:34.979Z,8.10
2024-02-18T00:28:01.736Z,7.90
2024-02-18T00:30:28.563Z,7.60
2024-02-18T00:32:55.649Z,7.50
2024-02-18T00:35:22.359Z,7.60
2024-02-18T00:37:48.978Z,7.70
2024-02-18T00:40:16.154Z,7.80
2024-02-18T00:42:42.940Z,7.80
2024-02-18T00:45:10.121Z,7.80
2024-02-18T00:47:37.203Z,7.90
2024-02-18T00:50:03.958Z,7.80
2024-02-18T00:52:30.743Z,7.80
2024-02-18T00:54:57.801Z,7.60
2024-02-18T00:57:24.467Z,7.60
2024-02-18T00:59:51.157Z,7.60
2024-02-18T01:02:18.257Z,7.70
2024-02-18T01:04:44.912Z,7.80
2024-02-18T01:07:11.804Z,7.70
2024-02-18T01:09:38.825Z,7.70
2024-02-18T01:12:05.675Z,7.60
2024-02-18T01:14:32.852Z,7.70
2024-02-18T01:16:59.650Z,7.80
2024-02-18T01:19:26.613Z,7.80
2024-02-18T01:21:54.056Z,7.90
2024-02-18T01:24:20.791Z,7.90
2024-02-18T01:26:47.464Z,7.90
2024-02-18T01:29:14.520Z,8.00
2024-02-18T01:31:41.323Z,8.00
2024-02-18T01:34:08.119Z,7.90
2024-02-18T01:36:35.269Z,8.00
2024-02-18T01:39:02.512Z,8.00
2024-02-18T01:41:29.097Z,8.00
2024-02-18T01:43:56.410Z,7.90
2024-02-18T01:46:23.626Z,7.90
2024-02-18T01:48:50.698Z,7.90
2024-02-18T01:51:18.086Z,7.90
2024-02-18T01:53:45.232Z,7.90
2024-02-18T01:56:13.030Z,7.80
2024-02-18T01:58:40.286Z,7.90
2024-02-18T02:01:07.111Z,7.90
2024-02-18T02:03:35.457Z,7.90
2024-02-18T02:06:03.073Z,7.90
2024-02-18T02:08:31.193Z,7.90
2024-02-18T02:10:58.345Z,7.90
2024-02-18T02:13:25.242Z,7.80
2024-02-18T02:15:52.103Z,7.70
2024-02-18T02:18:19.622Z,7.80
2024-02-18T02:20:46.494Z,7.80
2024-02-18T02:23:13.208Z,7.80
2024-02-18T02:25:40.658Z,7.80
2024-02-18T02:28:14.971Z,7.80
2024-02-18T02:30:42.225Z,7.80
2024-02-18T02:33:09.606Z,7.70
2024-02-18T02:35:38.157Z,7.70
2024-02-18T02:38:05.269Z,7.60
2024-02-18T02:40:32.007Z,7.50
2024-02-18T02:42:59.041Z,7.50
2024-02-18T02:45:26.248Z,7.40
2024-02-18T02:47:53.791Z,7.30
2024-02-18T02:50:20.779Z,7.30
2024-02-18T02:52:48.011Z,7.40
2024-02-18T02:55:15.072Z,7.40
2024-02-18T02:57:42.550Z,7.30
2024-02-18T03:00:12.735Z,7.30
2024-02-18T03:02:39.690Z,7.20
2024-02-18T03:05:06.923Z,7.20
2024-02-18T03:07:34.012Z,7.20
2024-02-18T03:10:00.857Z,7.20
2024-02-18T03:12:27.788Z,7.30
2024-02-18T03:14:54.909Z,7.20
2024-02-18T03:17:21.594Z,7.10
2024-02-18T03:19:48.423Z,7.10
2024-02-18T03:22:20.665Z,7.10
2024-02-18T03:24:47.398Z,7.10
2024-02-18T03:27:14.021Z,7.10
2024-02-18T03:29:41.090Z,7.10
2024-02-18T03:32:08.721Z,7.10
2024-02-18T03:34:35.440Z,7.00
2024-02-18T03:37:02.640Z,6.90
2024-02-18T03:39:29.430Z,6.80
2024-02-18T03:41:56.303Z,6.80
2024-02-18T03:44:23.440Z,6.70
2024-02-18T03:46:50.792Z,6.70
2024-02-18T03:49:17.482Z,6.60
2024-02-18T03:51:44.516Z,6.60
2024-02-18T03:54:12.064Z,6.60
2024-02-18T03:56:38.749Z,6.60
2024-02-18T03:59:05.908Z,6.50
2024-02-18T04:01:32.604Z,6.50
2024-02-18T04:03:59.379Z,6.50
2024-02-18T04:06:26.514Z,6.50
2024-02-18T04:08:53.232Z,6.40
2024-02-18T04:11:20.681Z,6.40
2024-02-18T04:13:47.865Z,6.40
2024-02-18T04:16:15.118Z,6.40
2024-02-18T04:18:43.285Z,6.30
2024-02-18T04:21:10.526Z,6.30
2024-02-18T04:23:37.155Z,6.30
2024-02-18T04:26:03.883Z,6.30
2024-02-18T04:28:30.992Z,6.30
2024-02-18T04:30:57.653Z,6.30
2024-02-18T04:33:24.434Z,6.30
2024-02-18T04:35:51.690Z,6.30
2024-02-18T04:38:18.403Z,6.20
2024-02-18T04:40:45.063Z,6.20
2024-02-18T04:43:11.786Z,6.20
2024-02-18T04:45:38.498Z,6.20
2024-02-18T04:48:05.575Z,6.20
2024-02-18T04:50:32.677Z,6.10
2024-02-18T04:52:59.311Z,6.10
2024-02-18T04:55:25.965Z,6.10
2024-02-18T04:57:52.957Z,6.10
2024-02-18T05:00:20.079Z,6.10
2024-02-18T05:02:46.845Z,6.10
2024-02-18T05:05:13.955Z,6.10
2024-02-18T05:07:40.591Z,6.10
2024-02-18T05:10:08.361Z,6.10
2024-02-18T05:12:35.457Z,6.10
2024-02-18T05:15:02.319Z,6.10
2024-02-18T05:17:29.315Z,6.10
2024-02-18T05:19:57.427Z,6.10
2024-02-18T05:22:25.489Z,6.10
2024-02-18T05:24:52.159Z,6.20
2024-02-18T05:27:19.500Z,6.10
2024-02-18T05:29:46.235Z,6.20
2024-02-18T05:32:12.848Z,6.10
2024-02-18T05:34:40.253Z,6.10
2024-02-18T05:37:07.119Z,6.10
2024-02-18T05:39:33.962Z,6.10
2024-02-18T05:42:01.114Z,6.10
2024-02-18T05:44:27.787Z,6.00
2024-02-18T05:46:54.410Z,6.10
2024-02-18T05:49:22.768Z,6.00
2024-02-18T05:51:53.994Z,6.00
2024-02-18T05:54:24.918Z,6.00
2024-02-18T05:56:51.727Z,6.00
2024-02-18T05:59:18.421Z,6.00
2024-02-18T06:01:46.009Z,6.00
2024-02-18T06:04:12.842Z,6.00
2024-02-18T06:06:39.749Z,6.00
2024-02-18T06:09:06.978Z,6.00
2024-02-18T06:11:33.652Z,6.00
2024-02-18T06:14:00.342Z,6.00
2024-02-18T06:16:27.405Z,5.80
2024-02-18T06:18:54.583Z,5.90
2024-02-18T06:21:22.313Z,5.90
2024-02-18T06:23:49.710Z,5.90
2024-02-18T06:26:16.565Z,5.90
2024-02-18T06:28:43.244Z,5.90
2024-02-18T06:31:10.376Z,5.90
2024-02-18T06:33:37.234Z,5.90
2024-02-18T06:36:04.131Z,5.90
2024-02-18T06:38:31.314Z,5.90
2024-02-18T06:40:58.696Z,6.00
2024-02-18T06:43:25.357Z,6.00
2024-02-18T06:45:52.440Z,5.90
2024-02-18T06:48:19.216Z,5.90
2024-02-18T06:50:45.957Z,6.10
2024-02-18T06:53:14.361Z,6.10
2024-02-18T06:55:40.976Z,6.20
2024-02-18T06:58:09.908Z,6.20
2024-02-18T07:00:37.229Z,6.20
2024-02-18T07:03:07.278Z,6.20
2024-02-18T07:05:34.125Z,6.30
2024-02-18T07:08:01.314Z,6.30
2024-02-18T07:10:29.342Z,6.30
2024-02-18T07:12:56.022Z,6.40
2024-02-18T07:15:23.071Z,6.50
2024-02-18T07:17:49.728Z,6.50
2024-02-18T07:20:16.917Z,6.50
2024-02-18T07:22:46.787Z,6.50
2024-02-18T07:25:13.441Z,6.50
2024-02-18T07:27:40.141Z,6.50
2024-02-18T07:30:07.516Z,6.50
2024-02-18T07:32:34.169Z,6.50
2024-02-18T07:35:00.847Z,6.50
2024-02-18T07:37:28.001Z,6.40
2024-02-18T07:39:54.663Z,6.50
2024-02-18T07:42:21.520Z,6.50
2024-02-18T07:44:48.497Z,6.50
2024-02-18T07:47:15.135Z,6.60
2024-02-18T07:49:41.970Z,6.70
2024-02-18T07:52:09.160Z,6.70
2024-02-18T07:54:35.890Z,6.80
2024-02-18T07:57:02.574Z,7.00
2024-02-18T07:59:29.651Z,7.00
2024-02-18T08:01:56.449Z,7.10
2024-02-18T08:04:23.723Z,7.30
2024-02-18T08:06:52.158Z,7.40
2024-02-18T08:09:19.425Z,7.50
2024-02-18T08:11:46.368Z,7.50
2024-02-18T08:14:13.424Z,7.50
2024-02-18T08:16:40.194Z,7.50
2024-02-18T08:19:06.949Z,7.50
2024-02-18T08:21:35.818Z,7.40
2024-02-18T08:24:02.540Z,7.40
2024-02-18T08:26:30.844Z,7.40
2024-02-18T08:28:57.891Z,7.50
2024-02-18T08:31:24.518Z,7.60
2024-02-18T08:33:51.978Z,7.50
2024-02-18T08:36:19.284Z,7.60
2024-02-18T08:38:45.979Z,7.60
2024-02-18T08:41:12.909Z,7.60
2024-02-18T08:43:40.763Z,7.70
2024-02-18T08:46:08.882Z,7.60
2024-02-18T08:48:36.910Z,7.60
2024-02-18T08:51:04.560Z,7.50
2024-02-18T08:53:31.198Z,7.50
2024-02-18T08:55:57.877Z,7.50
2024-02-18T08:58:24.933Z,7.50
2024-02-18T09:00:51.648Z,7.50
2024-02-18T09:03:18.416Z,7.60
2024-02-18T09:05:45.456Z,7.70
2024-02-18T09:08:12.133Z,7.80
2024-02-18T09:10:40.332Z,7.90
2024-02-18T09:13:07.498Z,7.90
2024-02-18T09:15:34.227Z,8.00
2024-02-18T09:18:01.152Z,8.10
2024-02-18T09:20:29.148Z,8.20
2024-02-18T09:22:57.160Z,8.30
2024-02-18T09:25:23.996Z,8.20
2024-02-18T09:27:50.772Z,8.20
2024-02-18T09:30:17.696Z,8.20
2024-02-18T09:32:46.031Z,8.30
2024-02-18T09:35:14.063Z,8.20
2024-02-18T09:37:40.984Z,8.20
2024-02-18T09:40:09.737Z,8.20
2024-02-18T09:42:40.186Z,8.30
2024-02-18T09:45:07.151Z,8.30
2024-02-18T09:47:34.967Z,8.20
2024-02-18T09:50:01.876Z,8.30
2024-02-18T09:52:29.287Z,8.30
2024-02-18T09:54:56.105Z,8.30
2024-02-18T09:57:23.128Z,8.30
2024-02-18T09:59:49.796Z,8.20
2024-02-18T10:02:17.861Z,8.20
2024-02-18T10:04:47.434Z,8.30
2024-02-18T10:07:16.020Z,8.30
2024-02-18T10:09:43.907Z,8.40
2024-02-18T10:12:14.010Z,8.40
2024-02-18T10:14:40.710Z,8.50
2024-02-18T10:17:07.915Z,8.60
2024-02-18T10:19:35.126Z,8.70
2024-02-18T10:22:03.525Z,8.70
2024-02-18T10:24:30.730Z,8.80
2024-02-18T10:26:58.125Z,8.80
2024-02-18T10:29:25.167Z,8.80
2024-02-18T10:31:51.826Z,8.80
2024-02-18T10:34:22.099Z,8.80
2024-02-18T10:36:52.660Z,8.80
2024-02-18T10:39:21.382Z,8.80
2024-02-18T10:41:59.029Z,8.80
2024-02-18T10:44:25.825Z,8.80
2024-02-18T10:46:53.222Z,8.80
2024-02-18T10:49:28.904Z,8.90
2024-02-18T10:52:02.443Z,8.90
2024-02-18T10:54:34.702Z,9.00
2024-02-18T10:57:02.010Z,9.10
2024-02-18T10:59:37.067Z,9.10
2024-02-18T11:02:11.089Z,9.10
2024-02-18T11:04:39.190Z,9.10
2024-02-18T11:07:06.334Z,9.20
2024-02-18T11:09:34.719Z,9.30
2024-02-18T11:12:01.766Z,9.40
2024-02-18T11:14:28.999Z,9.50
2024-02-18T11:16:56.228Z,9.60
2024-02-18T11:19:23.912Z,9.60
2024-02-18T11:21:53.784Z,9.60
2024-02-18T11:24:23.389Z,9.50
2024-02-18T11:26:50.984Z,9.60
2024-02-18T11:29:17.640Z,9.60
2024-02-18T11:31:44.617Z,9.60
2024-02-18T11:34:12.558Z,9.60
2024-02-18T11:36:39.550Z,9.60
2024-02-18T11:39:07.788Z,9.60
2024-02-18T11:41:35.746Z,9.70
2024-02-18T11:44:12.319Z,9.80
2024-02-18T11:46:40.537Z,9.90
2024-02-18T11:49:07.584Z,9.90
2024-02-18T11:51:34.781Z,9.90
2024-02-18T11:54:01.921Z,9.80
2024-02-18T11:56:29.030Z,9.90
2024-02-18T11:58:56.185Z,9.80
2024-02-18T12:01:27.257Z,9.80
2024-02-18T12:03:55.363Z,9.90
2024-02-18T12:06:22.976Z,9.90
2024-02-18T12:08:50.074Z,9.90
2024-02-18T12:11:17.867Z,10.00
2024-02-18T12:13:44.886Z,10.00
2024-02-18T12:16:12.888Z,10.00
2024-02-18T12:18:40.030Z,10.00
2024-02-18T12:21:08.137Z,10.10
2024-02-18T12:23:40.570Z,10.20
2024-02-18T12:26:07.333Z,10.20
2024-02-18T12:28:34.362Z,10.20
2024-02-18T12:31:01.162Z,10.30
2024-02-18T12:33:28.192Z,10.40
2024-02-18T12:35:55.048Z,10.40
2024-02-18T12:38:22.514Z,10.40
2024-02-18T12:40:54.084Z,10.40
2024-02-18T12:43:55.328Z,10.40
2024-02-18T12:46:09.715Z,10.40
2024-02-18T12:48:38.369Z,10.40
2024-02-18T12:51:13.613Z,10.40
2024-02-18T12:53:41.268Z,10.40
2024-02-18T12:56:09.443Z,10.40
2024-02-18T12:58:42.696Z,10.30
2024-02-18T13:01:10.598Z,10.40
2024-02-18T13:03:38.376Z,10.40
2024-02-18T13:06:05.702Z,10.40
2024-02-18T13:08:35.655Z,10.40
2024-02-18T13:11:02.447Z,10.50
2024-02-18T13:13:29.709Z,10.40
2024-02-18T13:15:56.813Z,10.40
2024-02-18T13:18:23.754Z,10.40
2024-02-18T13:20:50.804Z,10.40
2024-02-18T13:23:17.749Z,10.40
2024-02-18T13:25:44.404Z,10.40
2024-02-18T13:28:13.833Z,10.40
2024-02-18T13:30:40.925Z,10.40
2024-02-18T13:33:07.762Z,10.40
2024-02-18T13:35:35.156Z,10.40
2024-02-18T13:38:01.807Z,10.40
2024-02-18T13:40:30.901Z,10.40
2024-02-18T13:42:57.947Z,10.40
2024-02-18T13:45:25.517Z,10.40
2024-02-18T13:47:57.658Z,10.30
2024-02-18T13:50:26.451Z,10.30
2024-02-18T13:52:53.210Z,10.30
2024-02-18T13:55:19.923Z,10.30
2024-02-18T13:57:47.071Z,10.30
2024-02-18T14:00:14.004Z,10.30
2024-02-18T14:02:40.645Z,10.30
2024-02-18T14:05:08.586Z,10.30
2024-02-18T14:07:35.328Z,10.30
2024-02-18T14:10:02.754Z,10.30
2024-02-18T14:12:29.504Z,10.30
2024-02-18T14:14:57.799Z,10.30
2024-02-18T14:17:24.488Z,10.30
2024-02-18T14:19:51.443Z,10.30
2024-02-18T14:22:18.218Z,10.30
2024-02-18T14:24:45.223Z,10.30
2024-02-18T14:27:11.891Z,10.30
2024-02-18T14:29:38.560Z,10.20
2024-02-18T14:32:06.426Z,10.20
2024-02-18T14:34:33.332Z,10.20
2024-02-18T14:37:00.135Z,10.20
2024-02-18T14:39:27.287Z,10.20
2024-02-18T14:41:53.932Z,10.20
2024-02-18T14:44:20.701Z,10.20
2024-02-18T14:46:47.616Z,10.20
2024-02-18T14:49:14.347Z,10.20
2024-02-18T14:51:41.170Z,10.10
2024-02-18T14:54:08.386Z,10.10
2024-02-18T14:56:35.109Z,10.10
2024-02-18T14:59:01.860Z,10.10
2024-02-18T15:01:28.820Z,10.00
2024-02-18T15:03:55.538Z,10.00
2024-02-18T15:06:22.578Z,10.00
2024-02-18T15:08:49.344Z,10.00
2024-02-18T15:11:16.984Z,10.00
2024-02-18T15:13:43.694Z,10.00
2024-02-18T15:16:10.488Z,10.00
2024-02-18T15:18:37.788Z,10.00
2024-02-18T15:21:04.594Z,9.90
2024-02-18T15:23:33.779Z,9.90
2024-02-18T15:26:00.389Z,9.90
2024-02-18T15:28:27.128Z,9.90
2024-02-18T15:30:53.911Z,9.90
2024-02-18T15:33:21.154Z,9.90
2024-02-18T15:35:49.779Z,9.80
2024-02-18T15:38:17.198Z,9.80
2024-02-18T15:40:43.930Z,9.80
2024-02-18T15:43:11.197Z,9.80
2024-02-18T15:45:38.487Z,9.80
2024-02-18T15:48:05.405Z,9.80
2024-02-18T15:50:32.028Z,9.80
2024-02-18T15:53:01.902Z,9.80
2024-02-18T15:55:32.399Z,9.80
2024-02-18T15:58:01.012Z,9.70
2024-02-18T16:00:27.752Z,9.70
2024-02-18T16:02:54.889Z,9.70
2024-02-18T16:05:22.757Z,9.70
2024-02-18T16:07:50.808Z,9.60
2024-02-18T16:10:22.977Z,9.60
2024-02-18T16:12:49.651Z,9.60
2024-02-18T16:15:17.768Z,9.60
2024-02-18T16:17:48.189Z,9.60
2024-02-18T16:20:14.910Z,9.50
2024-02-18T16:22:41.800Z,9.50
2024-02-18T16:25:09.093Z,9.50
2024-02-18T16:27:36.902Z,9.50
2024-02-18T16:30:04.143Z,9.50
2024-02-18T16:32:31.582Z,9.50
2024-02-18T16:34:59.312Z,9.50
2024-02-18T16:37:26.060Z,9.40
2024-02-18T16:39:54.595Z,9.40
2024-02-18T16:42:21.313Z,9.40
2024-02-18T16:44:48.975Z,9.40
2024-02-18T16:47:16.143Z,9.40
2024-02-18T16:49:43.966Z,9.40
2024-02-18T16:52:10.982Z,9.40
2024-02-18T16:54:38.390Z,9.40
2024-02-18T16:57:06.921Z,9.40
2024-02-18T16:59:37.507Z,9.30
2024-02-18T17:02:04.392Z,9.30
2024-02-18T17:04:31.562Z,9.30
2024-02-18T17:06:58.513Z,9.30
2024-02-18T17:09:25.817Z,9.30
2024-02-18T17:11:52.405Z,9.30
2024-02-18T17:14:19.091Z,9.30
2024-02-18T17:16:45.989Z,9.30
2024-02-18T17:19:13.468Z,9.30
2024-02-18T17:21:43.855Z,9.30
2024-02-18T17:24:11.760Z,9.30
2024-02-18T17:26:38.496Z,9.30
2024-02-18T17:29:05.258Z,9.30
2024-02-18T17:31:32.251Z,9.30
2024-02-18T17:33:59.064Z,9.30
2024-02-18T17:36:25.833Z,9.30
2024-02-18T17:38:52.933Z,9.30
2024-02-18T17:41:19.773Z,9.30
2024-02-18T17:43:46.380Z,9.30
2024-02-18T17:46:16.643Z,9.30
2024-02-18T17:48:43.539Z,9.30
2024-02-18T17:51:10.221Z,9.30
2024-02-18T17:53:37.495Z,9.30
2024-02-18T17:56:05.835Z,9.30
2024-02-18T17:58:32.527Z,9.30
2024-02-18T18:00:59.739Z,9.30
2024-02-18T18:03:26.576Z,9.30
2024-02-18T18:05:53.593Z,9.30
2024-02-18T18:08:20.421Z,9.30
2024-02-18T18:10:47.873Z,9.30
2024-02-18T18:13:14.733Z,9.20
2024-02-18T18:15:42.486Z,9.30
2024-02-18T18:18:09.391Z,9.30
2024-02-18T18:20:36.098Z,9.30
2024-02-18T18:23:03.277Z,9.30
2024-02-18T18:25:29.892Z,9.30
2024-02-18T18:27:56.666Z,9.30
2024-02-18T18:30:23.732Z,9.30
2024-02-18T18:32:50.593Z,9.30
2024-02-18T18:35:17.486Z,9.30
2024-02-18T18:37:44.750Z,9.30
2024-02-18T18:40:11.794Z,9.30
2024-02-18T18:42:38.900Z,9.30
2024-02-18T18:45:08.870Z,9.30
2024-02-18T18:47:36.078Z,9.30
2024-02-18T18:50:05.027Z,9.30
2024-02-18T18:52:31.889Z,9.30
2024-02-18T18:54:58.696Z,9.40
2024-02-18T18:57:25.483Z,9.40
2024-02-18T18:59:52.720Z,9.40
2024-02-18T19:02:19.416Z,9.40
2024-02-18T19:04:46.139Z,9.40
2024-02-18T19:07:13.444Z,9.40
2024-02-18T19:09:40.140Z,9.40
2024-02-18T19:12:07.132Z,9.40
2024-02-18T19:14:34.942Z,9.30
2024-02-18T19:17:01.577Z,9.30
2024-02-18T19:19:28.781Z,9.40
2024-02-18T19:22:00.139Z,9.40
2024-02-18T19:24:27.680Z,9.40
2024-02-18T19:26:57.745Z,9.40
2024-02-18T19:29:24.513Z,9.40
2024-02-18T19:31:53.079Z,9.40
2024-02-18T19:34:20.159Z,9.40
2024-02-18T19:36:51.217Z,9.40
2024-02-18T19:39:18.387Z,9.40
2024-02-18T19:41:46.635Z,9.40
2024-02-18T19:44:13.571Z,9.40
2024-02-18T19:46:43.983Z,9.40
2024-02-18T19:49:11.790Z,9.40
2024-02-18T19:51:42.163Z,9.50
2024-02-18T19:54:08.844Z,9.50
2024-02-18T19:56:36.190Z,9.40
2024-02-18T19:59:04.068Z,9.40
2024-02-18T20:01:30.874Z,9.40
2024-02-18T20:03:58.162Z,9.40
2024-02-18T20:06:25.139Z,9.40
2024-02-18T20:08:51.838Z,9.40
2024-02-18T20:11:18.841Z,9.50
2024-02-18T20:13:45.814Z,9.50
2024-02-18T20:16:12.596Z,9.40
2024-02-18T20:18:40.032Z,9.40
2024-02-18T20:21:07.718Z,9.50
2024-02-18T20:23:34.596Z,9.50
2024-02-18T20:26:01.882Z,9.40
2024-02-18T20:28:28.707Z,9.40
2024-02-18T20:30:55.819Z,9.50
2024-02-18T20:33:22.909Z,9.40
2024-02-18T20:35:51.888Z,9.50
2024-02-18T20:38:20.610Z,9.40
2024-02-18T20:40:49.409Z,9.40
2024-02-18T20:43:16.205Z,9.40
2024-02-18T20:45:43.130Z,9.40
2024-02-18T20:48:10.284Z,9.40
2024-02-18T20:50:37.058Z,9.40
2024-02-18T20:53:03.829Z,9.40
2024-02-18T20:55:30.904Z,9.40
2024-02-18T20:58:02.201Z,9.40
2024-02-18T21:00:28.970Z,9.40
2024-02-18T21:02:56.172Z,9.40
2024-02-18T21:05:23.025Z,9.40
2024-02-18T21:07:50.206Z,9.40
2024-02-18T21:10:20.486Z,9.40
2024-02-18T21:12:47.530Z,9.40
2024-02-18T21:15:14.359Z,9.40
2024-02-18T21:17:41.522Z,9.30
2024-02-18T21:20:08.422Z,9.40
2024-02-18T21:22:35.086Z,9.30
2024-02-18T21:25:02.249Z,9.30
2024-02-18T21:27:29.116Z,9.30
2024-02-18T21:29:56.360Z,9.30
2024-02-18T21:32:23.635Z,9.30
2024-02-18T21:34:50.520Z,9.30
2024-02-18T21:37:17.513Z,9.30
2024-02-18T21:39:48.675Z,9.30
2024-02-18T21:42:16.203Z,9.30
2024-02-18T21:44:42.936Z,9.20
2024-02-18T21:47:10.009Z,9.20
2024-02-18T21:49:36.905Z,9.20
2024-02-18T21:52:04.201Z,9.30
2024-02-18T21:54:31.643Z,9.30
2024-02-18T21:56:58.361Z,9.30
2024-02-18T21:59:25.287Z,9.30
2024-02-18T22:01:53.698Z,9.30
2024-02-18T22:04:20.984Z,9.20
2024-02-18T22:07:00.627Z,9.20
2024-02-18T22:09:34.839Z,9.30
2024-02-18T22:12:01.991Z,9.30
2024-02-18T22:14:28.605Z,9.20
2024-02-18T22:16:55.326Z,9.10
2024-02-18T22:19:22.141Z,9.20
2024-02-18T22:21:48.984Z,9.30
2024-02-18T22:24:15.651Z,9.20
2024-02-18T22:26:45.809Z,9.20
2024-02-18T22:29:12.441Z,9.30
2024-02-18T22:31:39.228Z,9.30
2024-02-18T22:34:06.321Z,9.30
2024-02-18T22:36:33.021Z,9.30
2024-02-18T22:39:03.149Z,9.30
2024-02-18T22:41:30.105Z,9.30
2024-02-18T22:43:57.046Z,9.30
2024-02-18T22:46:23.892Z,9.30
2024-02-18T22:48:51.468Z,9.30
2024-02-18T22:51:18.233Z,9.40
2024-02-18T22:53:45.128Z,9.30
2024-02-18T22:56:11.884Z,9.30
2024-02-18T22:58:38.579Z,9.30
2024-02-18T23:01:05.511Z,9.30
2024-02-18T23:03:33.686Z,9.30
2024-02-18T23:06:00.695Z,9.30
2024-02-18T23:08:27.460Z,9.30
2024-02-18T23:10:54.178Z,9.30
2024-02-18T23:13:21.144Z,9.20
2024-02-18T23:15:48.210Z,9.20
2024-02-18T23:18:15.033Z,9.30
2024-02-18T23:20:43.152Z,9.30
2024-02-18T23:23:09.911Z,9.20
2024-02-18T23:25:36.670Z,9.20
2024-02-18T23:28:03.796Z,9.20
2024-02-18T23:30:30.595Z,9.20
2024-02-18T23:32:57.686Z,9.20
2024-02-18T23:35:24.500Z,9.20
2024-02-18T23:37:51.384Z,9.20
2024-02-18T23:40:18.813Z,9.20
2024-02-18T23:42:45.847Z,9.20
2024-02-18T23:45:12.767Z,9.20
2024-02-18T23:47:39.584Z,9.10
2024-02-18T23:50:07.103Z,9.10
2024-02-18T23:52:33.838Z,9.10
2024-02-18T23:55:00.728Z,9.20
2024-02-18T23:57:27.787Z,9.10
2024-02-18T23:59:54.573Z,9.20
